Time;durP1;ratioP1;P1;durP2;ratioP2;P2;SDS_P1;SDS_P2;PMS_P1;PMS_P2;Temp;Humidity;BMP_temperature;BMP_pressure;BME280_temperature;BME280_humidity;BME280_pressure;Samples;Min_cycle;Max_cycle;Signal;HPM_P1;HPM_P2
2023/10/29 00:01:10;;;;;;;5.57;0.80;;;;;;;14.75;72.18;98512.81;4973076;28;20023;-79
2023/10/29 00:03:35;;;;;;;7.50;1.00;;;;;;;14.67;73.14;98509.63;4973015;28;20035;-81
2023/10/29 00:06:01;;;;;;;4.57;0.80;;;;;;;14.71;72.60;98519.19;4972921;28;20059;-82
2023/10/29 00:08:27;;;;;;;5.50;0.88;;;;;;;14.69;72.94;98520.16;4972786;28;20030;-82
2023/10/29 00:10:52;;;;;;;6.77;0.90;;;;;;;14.70;72.71;98521.88;4955710;28;20037;-80
2023/10/29 00:13:18;;;;;;;8.60;0.80;;;;;;;14.63;73.05;98529.25;4972900;28;20027;-79
2023/10/29 00:15:43;;;;;;;6.17;0.63;;;;;;;14.66;72.98;98536.22;4971800;28;20113;-77
2023/10/29 00:18:12;;;;;;;7.03;0.70;;;;;;;14.67;72.62;98528.19;4972812;28;20031;-78
2023/10/29 00:20:38;;;;;;;3.80;0.60;;;;;;;14.66;72.40;98538.88;4972699;28;20119;-77
2023/10/29 00:23:03;;;;;;;5.53;1.02;;;;;;;14.67;72.70;98540.59;4972679;28;20045;-82
2023/10/29 00:25:29;;;;;;;4.93;0.67;;;;;;;14.63;72.86;98534.56;4972495;28;20023;-81
2023/10/29 00:27:55;;;;;;;7.23;0.80;;;;;;;14.64;72.67;98541.56;4972529;28;20114;-78
2023/10/29 00:30:20;;;;;;;6.30;1.00;;;;;;;14.61;72.77;98539.94;4972680;28;20691;-78
2023/10/29 00:32:46;;;;;;;11.57;1.20;;;;;;;14.58;73.00;98532.13;4972412;28;20023;-77
2023/10/29 00:35:11;;;;;;;6.40;0.82;;;;;;;14.55;73.10;98519.03;4972460;28;20027;-80
2023/10/29 00:37:37;;;;;;;4.43;0.70;;;;;;;14.53;73.09;98512.97;4968018;28;20039;-78
2023/10/29 00:40:04;;;;;;;7.27;0.87;;;;;;;14.53;73.12;98512.97;4972300;28;20416;-76
2023/10/29 00:42:30;;;;;;;7.77;0.83;;;;;;;14.53;72.98;98512.97;4972387;28;20710;-81
2023/10/29 00:44:55;;;;;;;5.97;0.90;;;;;;;14.53;72.83;98510.31;4973073;28;20085;-80
2023/10/29 00:47:20;;;;;;;3.43;0.70;;;;;;;14.55;72.52;98512.91;4991596;28;20478;-81
2023/10/29 00:49:46;;;;;;;6.80;0.70;;;;;;;14.55;72.68;98511.09;4991915;28;20405;-81
2023/10/29 00:52:13;;;;;;;5.90;0.70;;;;;;;14.56;72.85;98506.66;4991791;28;20030;-77
2023/10/29 00:54:39;;;;;;;3.90;0.70;;;;;;;14.53;72.42;98512.97;4980172;28;20058;-77
2023/10/29 00:57:06;;;;;;;7.80;0.80;;;;;;;14.54;72.40;98513.84;4972062;28;20057;-77
2023/10/29 00:59:34;;;;;;;4.43;0.63;;;;;;;14.51;72.43;98509.53;4954352;28;20049;-79
2023/10/29 01:01:59;;;;;;;6.30;0.80;;;;;;;14.51;72.38;98504.22;4972037;28;20121;-82
2023/10/29 01:04:25;;;;;;;7.83;0.80;;;;;;;14.49;72.23;98501.69;4954472;28;20577;-76
2023/10/29 01:06:50;;;;;;;5.47;0.70;;;;;;;14.45;72.59;98501.88;4971897;28;20053;-76
2023/10/29 01:09:17;;;;;;;8.07;0.82;;;;;;;14.40;72.75;98496.81;4971941;28;20043;-82
2023/10/29 01:11:42;;;;;;;7.30;0.73;;;;;;;14.45;72.36;98494.78;4971858;28;20649;-80
2023/10/29 01:14:07;;;;;;;6.17;1.03;;;;;;;14.45;72.46;98499.25;4971948;28;20031;-79
2023/10/29 01:16:33;;;;;;;4.93;0.70;;;;;;;14.50;72.07;98502.50;4971843;28;20454;-83
2023/10/29 01:18:58;;;;;;;5.60;0.60;;;;;;;14.47;72.34;98506.19;4953920;28;20089;-80
2023/10/29 01:21:26;;;;;;;9.95;0.75;;;;;;;14.49;71.89;98509.63;4971685;28;20025;-78
2023/10/29 01:23:51;;;;;;;8.18;0.80;;;;;;;14.51;72.05;98514.81;4967355;28;20089;-81
2023/10/29 01:26:17;;;;;;;5.63;0.53;;;;;;;14.53;71.76;98502.38;4959892;28;20443;-79
2023/10/29 01:28:43;;;;;;;3.90;0.63;;;;;;;14.54;71.93;98493.47;4971793;28;20023;-76
2023/10/29 01:31:09;;;;;;;5.57;0.88;;;;;;;14.56;71.70;98499.56;4971579;28;20019;-80
2023/10/29 01:33:35;;;;;;;4.60;0.80;;;;;;;14.54;71.68;98496.13;4971270;28;20084;-80
2023/10/29 01:36:00;;;;;;;7.70;0.88;;;;;;;14.56;71.44;98496.91;4971468;28;20110;-77
2023/10/29 01:38:26;;;;;;;7.40;0.63;;;;;;;14.56;71.62;98502.22;4971162;28;20102;-78
2023/10/29 01:40:51;;;;;;;5.00;0.60;;;;;;;14.53;71.76;98505.00;4970760;28;20030;-82
2023/10/29 01:43:17;;;;;;;6.47;0.70;;;;;;;14.53;71.78;98505.00;4971471;28;20569;-82
2023/10/29 01:45:42;;;;;;;5.47;0.67;;;;;;;14.55;71.64;98507.59;4978545;28;20055;-80
2023/10/29 01:48:08;;;;;;;6.17;0.70;;;;;;;14.54;71.56;98493.47;4990732;28;20502;-80
2023/10/29 01:50:35;;;;;;;4.83;0.70;;;;;;;14.53;71.71;98491.78;4955038;28;20277;-82
2023/10/29 01:53:00;;;;;;;7.55;0.70;;;;;;;14.51;71.49;98485.69;4951989;29;20054;-82
2023/10/29 01:55:26;;;;;;;5.73;1.00;;;;;;;14.50;71.71;98497.22;4969321;28;20750;-82
2023/10/29 01:57:51;;;;;;;6.30;0.77;;;;;;;14.47;71.67;98492.94;4971151;28;20037;-81
2023/10/29 02:00:16;;;;;;;4.87;0.60;;;;;;;14.44;71.72;98494.88;4971010;28;20411;-82
2023/10/29 02:02:42;;;;;;;6.03;0.70;;;;;;;14.35;72.38;98493.53;4971106;28;20023;-81
2023/10/29 02:05:07;;;;;;;5.97;0.70;;;;;;;14.39;72.12;98488.94;4971111;28;20030;-83
2023/10/29 02:07:33;;;;;;;5.20;0.73;;;;;;;14.38;72.06;98489.88;4971226;28;20398;-79
2023/10/29 02:09:59;;;;;;;4.65;0.70;;;;;;;14.37;72.29;98486.38;4970940;28;20031;-82
2023/10/29 02:12:24;;;;;;;5.23;0.70;;;;;;;14.37;72.01;98482.88;4971266;28;20399;-80
2023/10/29 02:14:50;;;;;;;4.25;0.70;;;;;;;14.40;71.90;98488.03;4970880;28;20064;-82
2023/10/29 02:17:15;;;;;;;5.40;0.80;;;;;;;14.40;71.93;98482.72;4970918;28;20069;-77
2023/10/29 02:19:40;;;;;;;7.13;0.70;;;;;;;14.40;71.94;98475.63;4970901;28;20629;-82
2023/10/29 02:22:06;;;;;;;6.37;0.67;;;;;;;14.40;71.86;98470.31;4971196;28;20054;-83
2023/10/29 02:24:31;;;;;;;9.57;1.00;;;;;;;14.41;71.62;98463.25;4970903;28;20031;-82
2023/10/29 02:26:57;;;;;;;5.60;1.00;;;;;;;14.39;72.05;98467.78;4970813;28;20030;-79
2023/10/29 02:29:22;;;;;;;7.60;1.00;;;;;;;14.37;72.00;98467.00;4970496;28;20326;-81
2023/10/29 02:31:48;;;;;;;5.80;1.00;;;;;;;14.31;72.22;98463.69;4970766;28;20242;-82
2023/10/29 02:34:13;;;;;;;6.70;0.90;;;;;;;14.26;72.71;98473.66;4970697;28;20027;-82
2023/10/29 02:36:38;;;;;;;5.82;0.73;;;;;;;14.24;72.57;98458.78;4970798;28;20027;-82
2023/10/29 02:39:04;;;;;;;6.50;1.13;;;;;;;14.18;72.88;98452.81;4973963;28;20037;-82
2023/10/29 02:41:30;;;;;;;7.87;0.90;;;;;;;14.16;73.22;98456.50;4974883;28;20026;-77
2023/10/29 02:43:58;;;;;;;6.88;0.70;;;;;;;14.15;73.15;98454.78;4974826;28;20472;-81
2023/10/29 02:46:23;;;;;;;11.48;0.95;;;;;;;14.16;73.03;98456.50;4974573;28;20298;-78
2023/10/29 02:48:49;;;;;;;7.03;0.90;;;;;;;14.18;72.68;98452.00;4974366;28;20124;-82
2023/10/29 02:51:14;;;;;;;9.77;1.20;;;;;;;14.18;72.82;98433.47;4974609;28;20031;-77
2023/10/29 02:53:39;;;;;;;9.03;1.27;;;;;;;14.18;72.64;98438.75;4974304;28;20051;-82
2023/10/29 02:56:05;;;;;;;5.93;0.90;;;;;;;14.16;72.96;98435.31;4974574;28;20031;-82
2023/10/29 02:58:30;;;;;;;8.07;0.90;;;;;;;14.15;72.91;98438.91;4974541;28;20475;-77
2023/10/29 03:01:07;;;;;;;9.33;0.90;;;;;;;14.12;73.51;98425.81;4974212;28;20467;-82
2023/10/29 03:03:33;;;;;;;5.75;0.80;;;;;;;14.13;73.02;98416.94;4974193;28;20042;-82
2023/10/29 03:06:02;;;;;;;8.90;0.90;;;;;;;14.15;72.83;98423.03;4974135;28;20455;-80
2023/10/29 03:08:28;;;;;;;7.38;0.80;;;;;;;14.15;73.04;98434.44;4973981;28;20049;-82
2023/10/29 03:10:53;;;;;;;9.23;0.90;;;;;;;14.11;73.25;98414.38;4956801;28;20031;-82
2023/10/29 03:13:18;;;;;;;9.70;1.20;;;;;;;14.11;73.27;98416.16;4974233;28;20117;-81
2023/10/29 03:15:47;;;;;;;6.73;1.00;;;;;;;14.11;73.34;98408.22;4974247;28;20037;-77
2023/10/29 03:18:13;;;;;;;9.50;1.00;;;;;;;14.10;73.46;98410.00;4973797;28;20034;-83
2023/10/29 03:20:39;;;;;;;10.15;1.60;;;;;;;14.07;74.18;98418.94;4974040;28;20026;-79
2023/10/29 03:23:05;;;;;;;7.93;0.93;;;;;;;14.14;73.75;98430.09;4974108;28;20395;-82
2023/10/29 03:25:30;;;;;;;4.30;0.90;;;;;;;14.15;73.97;98433.59;4973433;28;20031;-82
2023/10/29 03:27:56;;;;;;;7.20;1.27;;;;;;;14.18;73.81;98433.47;4973720;28;20049;-77
2023/10/29 03:30:21;;;;;;;8.05;1.27;;;;;;;14.18;73.70;98423.72;4973694;28;20463;-79
2023/10/29 03:32:47;;;;;;;11.57;1.00;;;;;;;14.20;73.88;98421.00;4973801;28;20033;-77
2023/10/29 03:35:12;;;;;;;7.43;1.00;;;;;;;14.22;74.14;98437.66;4973992;28;20510;-82
2023/10/29 03:37:38;;;;;;;10.48;1.30;;;;;;;14.27;74.01;98448.03;4973012;28;20652;-78
2023/10/29 03:40:06;;;;;;;10.97;1.27;;;;;;;14.27;74.22;98434.81;4973823;28;20164;-77
2023/10/29 03:42:31;;;;;;;7.15;1.00;;;;;;;14.27;74.26;98421.56;4973590;28;20039;-81
2023/10/29 03:44:58;;;;;;;6.60;1.17;;;;;;;14.32;74.02;98424.84;4974300;28;20489;-77
2023/10/29 03:47:23;;;;;;;8.05;0.98;;;;;;;14.32;74.00;98420.38;4992611;28;20454;-77
2023/10/29 03:49:48;;;;;;;8.43;1.23;;;;;;;14.29;74.47;98420.53;4992593;28;20031;-80
2023/10/29 03:52:14;;;;;;;9.23;1.27;;;;;;;14.29;74.69;98428.47;4993054;28;20332;-82
2023/10/29 03:54:39;;;;;;;10.67;1.47;;;;;;;14.32;74.23;98425.69;4981257;28;20029;-80
2023/10/29 03:57:05;;;;;;;7.13;0.80;;;;;;;14.32;74.26;98415.09;4973479;28;20041;-81
2023/10/29 03:59:30;;;;;;;9.70;1.13;;;;;;;14.32;74.12;98409.78;4955865;28;20022;-81
2023/10/29 04:01:55;;;;;;;10.77;1.40;;;;;;;14.32;73.93;98403.66;4973178;28;20023;-80
2023/10/29 04:04:22;;;;;;;14.50;1.63;;;;;;;14.33;74.00;98392.13;4973028;28;20274;-79
2023/10/29 04:06:47;;;;;;;7.63;1.20;;;;;;;14.34;74.06;98391.19;4972953;28;20051;-77
2023/10/29 04:09:12;;;;;;;10.13;1.73;;;;;;;14.32;74.63;98383.31;4972887;28;20035;-78
2023/10/29 04:11:38;;;;;;;6.07;1.10;;;;;;;14.38;74.36;98386.63;4973290;28;20034;-77
2023/10/29 04:14:04;;;;;;;6.70;1.30;;;;;;;14.37;74.47;98396.34;4957016;28;20143;-78
2023/10/29 04:16:29;;;;;;;9.48;1.48;;;;;;;14.37;74.55;98388.38;4953881;29;20020;-83
2023/10/29 04:18:54;;;;;;;12.07;1.60;;;;;;;14.39;74.55;98385.69;4953375;29;20472;-81
2023/10/29 04:21:20;;;;;;;7.70;1.10;;;;;;;14.39;74.52;98389.16;4953562;28;20023;-77
2023/10/29 04:23:45;;;;;;;15.97;1.60;;;;;;;14.36;75.48;98389.31;4953507;28;20035;-77
2023/10/29 04:26:10;;;;;;;10.00;1.33;;;;;;;14.40;74.71;98376.81;4960699;28;20034;-80
2023/10/29 04:28:36;;;;;;;8.43;1.40;;;;;;;14.42;74.66;98386.38;4972680;28;20305;-82
2023/10/29 04:31:02;;;;;;;9.97;1.57;;;;;;;14.44;75.13;98383.66;4972985;28;20493;-82
2023/10/29 04:33:28;;;;;;;9.15;1.40;;;;;;;14.44;75.20;98379.19;4972561;28;20506;-77
2023/10/29 04:35:53;;;;;;;9.83;1.30;;;;;;;14.46;75.32;98374.69;4972695;28;20681;-77
2023/10/29 04:38:19;;;;;;;10.35;1.40;;;;;;;14.49;75.29;98376.31;4972469;28;20022;-81
2023/10/29 04:40:45;;;;;;;8.80;1.50;;;;;;;14.52;74.99;98375.31;4955017;28;20049;-78
2023/10/29 04:43:10;;;;;;;12.20;1.33;;;;;;;14.51;75.02;98387.69;4972341;28;20125;-82
2023/10/29 04:45:36;;;;;;;10.80;1.57;;;;;;;14.54;75.05;98376.09;4972279;28;20118;-81
2023/10/29 04:48:01;;;;;;;8.00;1.70;;;;;;;14.55;74.97;98376.00;4972288;28;20073;-80
2023/10/29 04:50:30;;;;;;;8.48;1.50;;;;;;;14.56;74.90;98380.38;4972396;28;20038;-80
2023/10/29 04:52:56;;;;;;;10.60;1.63;;;;;;;14.56;75.03;98361.81;4972574;28;20058;-83
2023/10/29 04:55:21;;;;;;;8.57;1.27;;;;;;;14.57;75.01;98355.59;4972181;28;20070;-81
2023/10/29 04:57:47;;;;;;;11.73;2.80;;;;;;;14.58;75.08;98353.81;4972190;28;20395;-77
2023/10/29 05:00:13;;;;;;;13.05;1.63;;;;;;;14.56;75.50;98359.19;4971343;28;20026;-78
2023/10/29 05:02:38;;;;;;;9.93;1.30;;;;;;;14.59;75.10;98371.41;4972284;28;20037;-83
2023/10/29 05:05:06;;;;;;;16.58;1.98;;;;;;;14.54;75.62;98353.09;4954539;28;20031;-77
2023/10/29 05:07:32;;;;;;;12.93;1.48;;;;;;;14.60;75.28;98344.88;4972142;28;20046;-81
2023/10/29 05:09:57;;;;;;;10.47;1.47;;;;;;;14.58;75.36;98349.34;4972239;28;20376;-77
2023/10/29 05:12:23;;;;;;;11.90;1.77;;;;;;;14.57;75.64;98344.16;4971997;28;20030;-82
2023/10/29 05:14:51;;;;;;;11.75;1.95;;;;;;;14.60;75.01;98346.66;4971864;28;20031;-77
2023/10/29 05:17:16;;;;;;;10.37;1.60;;;;;;;14.61;74.98;98351.00;4971530;28;20117;-82
2023/10/29 05:19:42;;;;;;;9.57;1.30;;;;;;;14.60;74.75;98346.66;4971352;28;20121;-78
2023/10/29 05:22:07;;;;;;;10.43;1.57;;;;;;;14.60;75.33;98349.28;4971825;28;20472;-82
2023/10/29 05:24:32;;;;;;;11.30;1.73;;;;;;;14.59;75.49;98348.44;4971848;28;20030;-83
2023/10/29 05:26:58;;;;;;;11.87;1.60;;;;;;;14.58;75.70;98346.72;4971657;28;20700;-76
2023/10/29 05:29:23;;;;;;;9.88;1.70;;;;;;;14.59;75.48;98351.09;4969087;28;20078;-79
2023/10/29 05:31:48;;;;;;;9.17;1.57;;;;;;;14.61;75.14;98349.22;4952328;29;20031;-82
2023/10/29 05:34:14;;;;;;;8.60;2.03;;;;;;;14.62;75.23;98350.06;4952234;29;20027;-82
2023/10/29 05:36:40;;;;;;;14.47;2.27;;;;;;;14.59;75.34;98352.88;4955634;28;20101;-79
2023/10/29 05:39:07;;;;;;;11.75;1.65;;;;;;;14.58;75.43;98346.72;4971200;28;20019;-76
2023/10/29 05:41:32;;;;;;;10.60;1.90;;;;;;;14.59;75.31;98342.28;4971404;28;20035;-77
2023/10/29 05:43:57;;;;;;;9.77;1.60;;;;;;;14.58;75.35;98353.81;4971633;28;20097;-81
2023/10/29 05:46:23;;;;;;;8.53;1.60;;;;;;;14.58;75.44;98346.72;4971033;28;20053;-77
2023/10/29 05:48:49;;;;;;;12.52;1.50;;;;;;;14.58;75.46;98346.72;4971132;28;20113;-77
2023/10/29 05:51:18;;;;;;;11.87;1.67;;;;;;;14.56;75.60;98359.19;4971347;28;20042;-79
2023/10/29 05:53:44;;;;;;;9.95;1.67;;;;;;;14.54;75.38;98361.06;4971102;28;20034;-82
2023/10/29 05:56:10;;;;;;;12.45;1.58;;;;;;;14.54;75.04;98350.44;4971200;28;20034;-82
2023/10/29 05:58:35;;;;;;;13.97;1.70;;;;;;;14.54;75.24;98350.44;4971051;28;20030;-83
2023/10/29 06:01:01;;;;;;;11.18;1.80;;;;;;;14.53;75.24;98350.56;4971161;28;20027;-83
2023/10/29 06:03:27;;;;;;;12.40;1.93;;;;;;;14.51;75.32;98350.63;4971193;28;20062;-78
2023/10/29 06:05:52;;;;;;;12.10;1.90;;;;;;;14.47;75.34;98351.72;4970939;28;20046;-80
2023/10/29 06:08:18;;;;;;;12.43;2.13;;;;;;;14.42;75.84;98345.81;4971069;28;20039;-80
2023/10/29 06:10:43;;;;;;;7.67;1.57;;;;;;;14.41;75.96;98339.63;4971082;28;20499;-81
2023/10/29 06:13:09;;;;;;;12.48;1.73;;;;;;;14.40;75.91;98348.50;4970863;28;20559;-79
2023/10/29 06:15:34;;;;;;;10.40;1.90;;;;;;;14.38;76.40;98345.09;4970630;28;20035;-78
2023/10/29 06:18:00;;;;;;;14.87;2.03;;;;;;;14.38;76.02;98360.13;4970830;28;20038;-80
2023/10/29 06:20:27;;;;;;;10.30;1.60;;;;;;;14.37;76.42;98358.44;4970751;28;20027;-81
2023/10/29 06:22:52;;;;;;;11.87;1.83;;;;;;;14.35;76.37;98362.00;4970998;28;20278;-77
2023/10/29 06:25:17;;;;;;;9.43;1.63;;;;;;;14.38;76.10;98366.28;4970863;28;20042;-79
2023/10/29 06:27:43;;;;;;;12.65;1.95;;;;;;;14.37;76.42;98361.06;4970865;28;20109;-77
2023/10/29 06:30:11;;;;;;;11.93;1.90;;;;;;;14.38;76.47;98360.13;4970876;28;20113;-83
2023/10/29 06:32:36;;;;;;;12.38;1.75;;;;;;;14.39;76.05;98383.03;4970631;28;20043;-78
2023/10/29 06:35:03;;;;;;;13.87;1.93;;;;;;;14.39;76.06;98388.34;4970812;28;20034;-77
2023/10/29 06:37:28;;;;;;;9.95;1.80;;;;;;;14.38;76.05;98381.31;4970351;28;20380;-82
2023/10/29 06:39:53;;;;;;;10.93;1.60;;;;;;;14.39;75.60;98377.75;4970870;28;20030;-78
2023/10/29 06:42:19;;;;;;;9.43;1.60;;;;;;;14.35;76.23;98382.31;4970815;28;20053;-81
2023/10/29 06:44:45;;;;;;;12.23;1.70;;;;;;;14.34;75.79;98375.31;4953187;28;20061;-81
2023/10/29 06:47:10;;;;;;;16.53;2.00;;;;;;;14.32;75.70;98378.03;4989193;28;20031;-80
2023/10/29 06:49:35;;;;;;;11.98;2.13;;;;;;;14.32;75.42;98382.47;4989905;28;20030;-83
2023/10/29 06:52:01;;;;;;;8.83;1.73;;;;;;;14.29;75.73;98375.53;4972594;28;20045;-77
2023/10/29 06:54:27;;;;;;;9.30;1.60;;;;;;;14.28;75.63;98380.91;4980263;28;20027;-78
2023/10/29 06:56:52;;;;;;;8.40;1.50;;;;;;;14.26;75.68;98385.44;4970724;28;20113;-82
2023/10/29 06:59:18;;;;;;;9.87;1.77;;;;;;;14.23;75.83;98402.31;4970493;28;20038;-82
2023/10/29 07:01:44;;;;;;;10.88;1.80;;;;;;;14.20;75.54;98397.19;4963101;28;20038;-81
2023/10/29 07:04:09;;;;;;;10.60;1.83;;;;;;;14.19;75.63;98419.28;4951256;29;20031;-79
2023/10/29 07:06:35;;;;;;;9.00;1.87;;;;;;;14.19;75.71;98419.28;4951106;29;20464;-82
2023/10/29 07:09:01;;;;;;;12.10;1.88;;;;;;;14.17;75.68;98413.22;4950819;28;20508;-82
2023/10/29 07:11:29;;;;;;;10.23;1.92;;;;;;;14.17;75.87;98424.66;4950984;28;20043;-83
2023/10/29 07:13:54;;;;;;;10.13;1.77;;;;;;;14.17;75.64;98448.47;4951228;29;20644;-82
2023/10/29 07:16:20;;;;;;;15.80;1.80;;;;;;;14.16;75.54;98440.63;4951433;29;20042;-82
2023/10/29 07:18:45;;;;;;;9.20;1.53;;;;;;;14.16;75.57;98460.00;4951065;28;20031;-82
2023/10/29 07:21:11;;;;;;;10.50;1.63;;;;;;;14.16;75.55;98459.16;4958702;28;20483;-77
2023/10/29 07:23:36;;;;;;;12.07;2.10;;;;;;;14.17;75.39;98468.81;4970989;28;20090;-78
2023/10/29 07:26:14;;;;;;;10.40;2.00;;;;;;;14.13;75.71;98464.59;4968915;28;20038;-76
2023/10/29 07:28:40;;;;;;;12.88;2.30;;;;;;;14.05;76.08;98471.09;4973741;28;20069;-81
2023/10/29 07:31:05;;;;;;;9.88;2.17;;;;;;;14.00;76.32;98474.91;4969117;28;20118;-77
2023/10/29 07:33:32;;;;;;;11.70;2.10;;;;;;;13.96;76.36;98474.19;4954794;28;20113;-76
2023/10/29 07:35:57;;;;;;;8.65;2.13;;;;;;;13.99;76.14;98491.72;4960097;28;20114;-81
2023/10/29 07:38:23;;;;;;;10.83;1.97;;;;;;;14.01;76.01;98501.28;4972839;28;20134;-82
2023/10/29 07:40:50;;;;;;;11.03;2.23;;;;;;;14.04;76.09;98505.59;4973351;28;20077;-77
2023/10/29 07:43:15;;;;;;;9.02;2.30;;;;;;;14.16;75.80;98512.09;4973667;28;20023;-75
2023/10/29 07:45:40;;;;;;;10.33;2.30;;;;;;;14.29;75.58;98521.16;4967893;28;20035;-77
2023/10/29 07:48:06;;;;;;;11.25;2.55;;;;;;;14.37;75.37;98514.66;4960353;28;20117;-82
2023/10/29 07:50:31;;;;;;;9.70;2.30;;;;;;;14.45;75.42;98515.97;4959284;28;20112;-82
2023/10/29 07:52:57;;;;;;;9.53;1.77;;;;;;;14.51;75.87;98506.88;4967360;28;20035;-79
2023/10/29 07:55:22;;;;;;;13.87;2.30;;;;;;;14.51;76.07;98504.22;4941318;28;20027;-79
2023/10/29 07:57:47;;;;;;;13.57;2.20;;;;;;;14.52;75.85;98513.88;4963071;28;20478;-76
2023/10/29 08:00:13;;;;;;;12.40;2.00;;;;;;;14.54;75.56;98514.66;4959947;28;20282;-74
2023/10/29 08:02:40;;;;;;;9.87;2.10;;;;;;;14.61;75.55;98510.81;4954865;28;20100;-77
2023/10/29 08:05:06;;;;;;;9.03;1.60;;;;;;;14.69;75.30;98528.94;4966807;28;20775;-79
2023/10/29 08:07:32;;;;;;;7.85;2.00;;;;;;;14.77;75.04;98531.25;4964533;28;20034;-79
2023/10/29 08:09:57;;;;;;;13.63;2.10;;;;;;;14.86;75.05;98537.91;4967617;28;20090;-77
2023/10/29 08:12:23;;;;;;;8.98;2.10;;;;;;;14.95;74.69;98536.59;4971062;28;20035;-78
2023/10/29 08:14:49;;;;;;;11.77;1.77;;;;;;;15.05;74.66;98530.75;4957983;28;20117;-77
2023/10/29 08:17:17;;;;;;;11.30;1.60;;;;;;;15.26;74.66;98543.84;4963509;28;20114;-80
2023/10/29 08:19:43;;;;;;;12.00;1.95;;;;;;;15.47;74.10;98533.91;4969650;28;20039;-80
2023/10/29 08:22:09;;;;;;;10.97;2.00;;;;;;;15.64;73.55;98527.72;4961179;28;20031;-76
2023/10/29 08:24:35;;;;;;;15.07;1.70;;;;;;;15.76;73.77;98539.47;4953796;28;20117;-78
2023/10/29 08:27:00;;;;;;;10.07;1.43;;;;;;;15.85;73.47;98539.94;4956970;28;20031;-77
2023/10/29 08:29:26;;;;;;;8.32;1.85;;;;;;;15.93;73.27;98543.06;4955164;28;20476;-81
2023/10/29 08:31:51;;;;;;;10.63;1.77;;;;;;;15.98;72.89;98534.88;4970417;28;20435;-77
2023/10/29 08:34:16;;;;;;;11.10;1.93;;;;;;;16.05;72.77;98537.09;4967791;28;20503;-76
2023/10/29 08:36:42;;;;;;;14.10;2.33;;;;;;;16.09;72.68;98536.94;4960533;28;20105;-80
2023/10/29 08:39:07;;;;;;;8.80;1.93;;;;;;;16.12;72.71;98531.44;4961415;28;20027;-75
2023/10/29 08:41:32;;;;;;;11.23;1.63;;;;;;;16.14;72.71;98532.22;4964094;28;20390;-76
2023/10/29 08:43:58;;;;;;;8.07;1.80;;;;;;;16.18;72.55;98547.03;4968693;28;20267;-80
2023/10/29 08:46:23;;;;;;;9.20;1.47;;;;;;;16.24;72.65;98546.69;4961826;28;20073;-75
2023/10/29 08:48:51;;;;;;;7.50;1.40;;;;;;;16.31;72.63;98548.09;4963191;28;20567;-79
2023/10/29 08:51:16;;;;;;;10.73;1.55;;;;;;;16.40;72.32;98541.41;4961194;28;20136;-76
2023/10/29 08:53:41;;;;;;;14.60;2.10;;;;;;;16.51;72.06;98548.75;4962182;28;20097;-76
2023/10/29 08:56:07;;;;;;;11.23;2.22;;;;;;;16.61;71.99;98538.47;4961884;28;20078;-75
2023/10/29 08:58:33;;;;;;;10.53;1.73;;;;;;;16.75;71.80;98545.66;4964177;28;20084;-75
2023/10/29 09:00:58;;;;;;;11.07;1.50;;;;;;;16.91;71.72;98538.50;4947336;28;20447;-75
2023/10/29 09:03:25;;;;;;;13.88;1.77;;;;;;;17.03;71.39;98546.75;4956221;28;20484;-75
2023/10/29 09:05:50;;;;;;;8.60;1.90;;;;;;;17.16;70.98;98533.59;4963844;28;20459;-82
2023/10/29 09:08:16;;;;;;;12.90;1.88;;;;;;;17.26;70.53;98531.25;4954776;28;20034;-75
2023/10/29 09:10:43;;;;;;;8.80;1.60;;;;;;;17.36;70.18;98540.38;4956017;28;20098;-75
2023/10/29 09:13:09;;;;;;;6.70;1.40;;;;;;;17.48;69.89;98534.34;4959221;28;20034;-77
2023/10/29 09:15:34;;;;;;;8.85;1.40;;;;;;;17.59;69.19;98525.66;4961483;28;20038;-79
2023/10/29 09:18:00;;;;;;;11.23;1.80;;;;;;;17.64;69.53;98528.06;4961005;28;20523;-78
2023/10/29 09:20:25;;;;;;;10.90;1.60;;;;;;;17.72;68.99;98531.09;4961035;28;20031;-79
2023/10/29 09:22:51;;;;;;;7.83;1.50;;;;;;;17.84;69.07;98540.13;4961799;28;20042;-76
2023/10/29 09:25:16;;;;;;;7.33;1.30;;;;;;;17.91;68.53;98530.81;4958754;28;20283;-79
2023/10/29 09:27:41;;;;;;;8.87;1.70;;;;;;;17.94;68.77;98535.09;4963269;28;20058;-76
2023/10/29 09:30:08;;;;;;;7.93;1.40;;;;;;;17.96;68.63;98541.16;4963089;28;20035;-76
2023/10/29 09:32:36;;;;;;;7.90;1.38;;;;;;;18.01;68.74;98530.25;4960494;28;20034;-77
2023/10/29 09:35:04;;;;;;;6.97;1.30;;;;;;;18.04;68.43;98524.75;4954840;28;20063;-75
2023/10/29 09:37:32;;;;;;;6.40;1.00;;;;;;;18.11;68.41;98535.88;4955190;28;20615;-77
2023/10/29 09:39:58;;;;;;;7.03;1.10;;;;;;;18.21;68.16;98551.19;4958589;28;20637;-78
2023/10/29 09:42:29;;;;;;;7.70;1.00;;;;;;;18.26;67.56;98534.03;4949441;28;20031;-78
2023/10/29 09:44:58;;;;;;;9.45;1.00;;;;;;;18.31;67.73;98538.13;4954052;28;20019;-78
2023/10/29 09:47:26;;;;;;;8.10;1.50;;;;;;;18.36;67.49;98537.84;4959608;28;20488;-77
2023/10/29 09:49:54;;;;;;;7.37;1.20;;;;;;;18.39;67.54;98555.44;4960095;28;20635;-79
2023/10/29 09:52:19;;;;;;;8.50;1.00;;;;;;;18.40;67.57;98546.47;4957024;28;20395;-78
2023/10/29 09:54:46;;;;;;;11.13;1.50;;;;;;;18.45;67.35;98549.72;4955658;28;20043;-81
2023/10/29 09:57:12;;;;;;;10.57;1.30;;;;;;;18.43;66.86;98547.16;4962320;28;20031;-75
2023/10/29 09:59:38;;;;;;;8.23;0.90;;;;;;;18.43;66.96;98548.94;4967541;28;20035;-78
2023/10/29 10:02:03;;;;;;;8.80;1.50;;;;;;;18.38;66.58;98559.91;4962741;28;20510;-74
2023/10/29 10:04:29;;;;;;;7.70;1.20;;;;;;;18.46;66.32;98554.94;4966262;28;20070;-73
2023/10/29 10:06:57;;;;;;;7.33;1.30;;;;;;;18.44;66.33;98555.97;4962920;28;20053;-76
2023/10/29 10:09:23;;;;;;;13.02;1.35;;;;;;;18.41;66.31;98559.72;4967388;28;20100;-74
2023/10/29 10:12:02;;;;;;;11.40;1.60;;;;;;;18.38;65.60;98575.91;4964531;28;20495;-83
2023/10/29 10:14:27;;;;;;;7.60;1.42;;;;;;;18.45;66.16;98579.88;4956894;28;20023;-73
2023/10/29 10:17:12;;;;;;;9.63;1.23;;;;;;;18.48;65.57;98576.19;4954504;28;20468;-73
2023/10/29 10:19:37;;;;;;;9.07;1.20;;;;;;;18.57;66.02;98567.59;4965025;28;20041;-76
2023/10/29 10:22:06;;;;;;;9.53;1.50;;;;;;;18.70;65.47;98566.81;4961338;28;20031;-75
2023/10/29 10:24:39;;;;;;;10.60;1.20;;;;;;;18.71;65.36;98568.50;4955991;28;20403;-78
2023/10/29 10:27:05;;;;;;;10.60;1.85;;;;;;;18.73;65.48;98571.94;4963916;28;20091;-74
2023/10/29 10:29:31;;;;;;;10.48;2.03;;;;;;;18.78;65.29;98567.16;4959892;28;20069;-79
2023/10/29 10:32:05;;;;;;;8.38;1.55;;;;;;;18.79;65.03;98568.84;4962896;28;20031;-75
2023/10/29 10:34:34;;;;;;;9.17;1.50;;;;;;;18.86;65.08;98583.47;4962381;28;20078;-81
2023/10/29 10:37:04;;;;;;;11.25;1.75;;;;;;;18.93;64.77;98576.81;4959448;28;20019;-74
2023/10/29 10:39:33;;;;;;;9.25;2.13;;;;;;;18.97;64.60;98574.78;4967092;28;20085;-80
2023/10/29 10:42:00;;;;;;;10.82;2.15;;;;;;;19.04;64.21;98577.94;4961278;28;20061;-75
2023/10/29 10:44:29;;;;;;;13.90;2.90;;;;;;;19.00;64.06;98576.44;4983833;28;20057;-86
2023/10/29 10:46:58;;;;;;;9.47;1.60;;;;;;;19.05;63.99;98564.50;4966420;28;20030;-76
2023/10/29 10:49:25;;;;;;;10.00;1.42;;;;;;;19.06;64.11;98554.69;4966414;28;20031;-80
2023/10/29 10:51:55;;;;;;;11.18;1.40;;;;;;;19.10;64.45;98558.84;4969846;28;20030;-75
2023/10/29 10:54:22;;;;;;;9.25;1.50;;;;;;;19.21;64.10;98553.66;4957272;28;20034;-73
2023/10/29 10:56:50;;;;;;;11.00;1.45;;;;;;;19.28;63.98;98564.75;4953681;28;20035;-73
2023/10/29 10:59:16;;;;;;;13.13;2.00;;;;;;;19.33;64.08;98565.31;4969622;28;20029;-83
2023/10/29 11:01:41;;;;;;;7.85;1.40;;;;;;;19.38;64.10;98573.00;4959765;28;20031;-81
2023/10/29 11:04:09;;;;;;;9.63;1.40;;;;;;;19.43;64.01;98573.56;4963623;28;20031;-73
2023/10/29 11:06:36;;;;;;;11.52;1.80;;;;;;;19.52;63.37;98566.69;4958220;28;20463;-74
2023/10/29 11:09:03;;;;;;;9.77;1.40;;;;;;;19.60;63.31;98568.84;4962686;28;20402;-79
2023/10/29 11:11:45;;;;;;;9.07;1.55;;;;;;;19.65;62.44;98561.38;4968832;28;20039;-77
2023/10/29 11:14:12;;;;;;;7.75;1.50;;;;;;;19.76;62.92;98560.63;4962819;28;20516;-73
2023/10/29 11:16:48;;;;;;;9.27;1.57;;;;;;;19.80;63.12;98548.78;4956029;28;20034;-73
2023/10/29 11:19:36;;;;;;;10.52;1.83;;;;;;;19.86;60.70;98563.50;4967521;28;20031;-78
2023/10/29 11:22:16;;;;;;;8.80;1.40;;;;;;;20.00;61.78;98554.56;4963557;28;20059;-76
2023/10/29 11:24:42;;;;;;;11.85;1.67;;;;;;;20.18;62.00;98557.75;4957419;28;20042;-81